createdAt,value
2022-10-23T00:00:48.845Z,79.65
2022-10-23T00:05:49.997Z,80.71
2022-10-23T00:10:51.189Z,81.21
2022-10-23T00:20:53.401Z,79.90
2022-10-23T00:25:55.531Z,79.28
2022-10-23T00:30:54.776Z,79.18
2022-10-23T00:35:59.833Z,79.18
2022-10-23T00:40:56.977Z,79.72
2022-10-23T00:45:58.048Z,80.07
2022-10-23T00:50:59.253Z,80.58
2022-10-23T00:56:00.407Z,81.23
2022-10-23T01:01:01.637Z,82.07
2022-10-23T01:06:02.858Z,82.73
2022-10-23T01:11:03.965Z,81.20
2022-10-23T01:16:06.057Z,83.95
2022-10-23T01:21:05.147Z,86.68
2022-10-23T01:26:07.233Z,85.35
2022-10-23T01:31:06.331Z,83.58
2022-10-23T01:36:07.475Z,82.21
2022-10-23T01:41:10.589Z,81.81
2022-10-23T01:46:09.789Z,81.40
2022-10-23T01:51:12.046Z,84.50
2022-10-23T01:56:11.137Z,87.73
2022-10-23T02:01:12.321Z,90.36
2022-10-23T02:06:13.686Z,92.29
2022-10-23T02:11:14.847Z,93.35
2022-10-23T02:16:16.019Z,95.07
2022-10-23T02:21:17.107Z,95.79
2022-10-23T02:26:18.196Z,96.10
2022-10-23T02:31:19.392Z,96.30
2022-10-23T02:36:20.533Z,96.51
2022-10-23T02:41:22.656Z,96.51
2022-10-23T02:46:22.781Z,98.19
2022-10-23T02:51:22.898Z,97.06
2022-10-23T02:56:21.999Z,96.86
2022-10-23T03:01:24.470Z,97.06
2022-10-23T03:06:23.648Z,97.47
2022-10-23T03:11:24.764Z,98.19
2022-10-23T03:16:26.889Z,97.47
2022-10-23T03:21:27.075Z,97.62
2022-10-23T03:26:26.236Z,97.92
2022-10-23T03:31:27.340Z,98.99
2022-10-23T03:36:28.458Z,99.51
2022-10-23T03:41:29.570Z,99.99
2022-10-23T03:46:30.775Z,99.99
2022-10-23T03:51:31.908Z,99.99
2022-10-23T03:56:33.006Z,99.99
2022-10-23T04:01:34.406Z,99.99
2022-10-23T04:06:36.713Z,99.99
2022-10-23T04:11:35.823Z,99.99
2022-10-23T04:16:37.147Z,99.99
2022-10-23T04:21:39.233Z,99.99
2022-10-23T04:26:38.459Z,99.99
2022-10-23T04:31:39.691Z,99.99
2022-10-23T04:36:40.965Z,99.99
2022-10-23T04:41:42.139Z,99.99
2022-10-23T04:46:44.222Z,99.99
2022-10-23T04:51:43.373Z,99.99
2022-10-23T04:56:44.469Z,99.99
2022-10-23T05:01:47.666Z,99.99
2022-10-23T05:06:46.786Z,99.99
2022-10-23T05:11:52.797Z,99.99
2022-10-23T05:16:48.005Z,99.99
2022-10-23T05:21:49.152Z,99.99
2022-10-23T05:26:51.247Z,99.99
2022-10-23T05:31:51.335Z,99.99
2022-10-23T05:36:50.515Z,99.99
2022-10-23T05:41:51.897Z,99.99
2022-10-23T05:46:53.984Z,99.99
2022-10-23T05:51:53.179Z,99.99
2022-10-23T05:56:55.311Z,99.99
2022-10-23T06:01:54.670Z,99.99
2022-10-23T06:06:56.875Z,99.99
2022-10-23T06:11:56.047Z,99.99
2022-10-23T06:16:57.222Z,99.99
2022-10-23T06:21:58.382Z,99.99
2022-10-23T06:27:00.483Z,99.99
2022-10-23T06:31:59.629Z,99.99
2022-10-23T06:37:01.761Z,99.99
2022-10-23T06:42:00.876Z,99.99
2022-10-23T06:47:03.008Z,99.99
2022-10-23T06:52:02.320Z,99.99
2022-10-23T06:57:03.441Z,99.16
2022-10-23T07:02:03.732Z,98.36
2022-10-23T07:07:04.844Z,96.98
2022-10-23T07:12:05.938Z,95.92
2022-10-23T07:17:07.101Z,94.45
2022-10-23T07:22:10.763Z,93.24
2022-10-23T07:27:08.236Z,92.18
2022-10-23T07:32:08.372Z,91.68
2022-10-23T07:37:10.457Z,87.26
2022-10-23T07:42:09.551Z,85.70
2022-10-23T07:47:10.816Z,87.29
2022-10-23T07:52:11.938Z,86.33
2022-10-23T07:57:13.187Z,89.22
2022-10-23T08:02:14.382Z,90.88
2022-10-23T08:07:15.715Z,90.68
2022-10-23T08:12:18.815Z,89.22
2022-10-23T08:17:18.925Z,89.76
2022-10-23T08:22:18.086Z,89.62
2022-10-23T08:27:20.176Z,89.87
2022-10-23T08:32:19.367Z,89.62
2022-10-23T08:37:21.465Z,90.74
2022-10-23T08:42:21.752Z,89.09
2022-10-23T08:47:20.922Z,88.28
2022-10-23T08:52:23.056Z,86.02
2022-10-23T08:57:22.281Z,85.88
2022-10-23T09:02:23.460Z,86.08
2022-10-23T09:07:24.755Z,85.58
2022-10-23T09:12:25.857Z,87.26
2022-10-23T09:17:27.087Z,85.90
2022-10-23T09:22:28.341Z,85.08
2022-10-23T09:27:29.556Z,85.68
2022-10-23T09:32:30.776Z,83.24
2022-10-23T09:37:31.986Z,78.25
2022-10-23T09:42:38.338Z,72.67
2022-10-23T09:47:33.553Z,73.14
2022-10-23T09:52:34.705Z,79.08
2022-10-23T09:57:35.871Z,77.37
2022-10-23T10:02:37.004Z,77.13
2022-10-23T10:07:38.186Z,78.27
2022-10-23T10:12:39.261Z,78.22
2022-10-23T10:17:40.439Z,79.97
2022-10-23T10:22:42.680Z,81.64
2022-10-23T10:27:42.046Z,76.91
2022-10-23T10:32:42.335Z,79.03
2022-10-23T10:37:43.922Z,78.45
2022-10-23T10:42:41.321Z,79.63
2022-10-23T10:47:42.767Z,79.83
2022-10-23T10:52:45.408Z,82.18
2022-10-23T10:57:43.494Z,81.07
2022-10-23T11:02:42.947Z,82.16
2022-10-23T11:07:45.465Z,81.41
2022-10-23T11:12:45.770Z,80.98
2022-10-23T11:17:45.369Z,80.54
2022-10-23T11:22:45.079Z,78.68
2022-10-23T11:27:44.845Z,76.76
2022-10-23T11:32:45.226Z,74.05
2022-10-23T11:37:44.540Z,56.38
2022-10-23T11:42:44.332Z,54.41
2022-10-23T11:47:43.731Z,52.67
2022-10-23T11:52:50.809Z,53.53
2022-10-23T11:57:45.007Z,50.33
2022-10-23T12:02:46.695Z,50.01
2022-10-23T12:07:47.251Z,50.78
2022-10-23T12:12:46.583Z,48.47
2022-10-23T12:17:48.692Z,49.66
2022-10-23T12:22:48.792Z,50.58
2022-10-23T12:27:48.085Z,50.48
2022-10-23T12:32:49.208Z,52.07
2022-10-23T12:37:50.302Z,51.77
2022-10-23T12:42:52.689Z,52.07
2022-10-23T12:47:52.138Z,51.70
2022-10-23T12:52:51.387Z,52.12
2022-10-23T12:57:52.563Z,50.75
2022-10-23T13:02:53.659Z,50.95
2022-10-23T13:07:54.908Z,51.05
2022-10-23T13:12:56.151Z,50.18
2022-10-23T13:17:58.423Z,51.37
2022-10-23T13:23:00.367Z,51.87
2022-10-23T13:27:58.036Z,52.89
2022-10-23T13:32:59.375Z,52.26
2022-10-23T13:37:59.615Z,50.38
2022-10-23T13:43:01.694Z,50.26
2022-10-23T13:48:00.878Z,50.13
2022-10-23T13:53:02.143Z,50.63
2022-10-23T13:58:04.316Z,51.03
2022-10-23T14:03:03.585Z,50.16
2022-10-23T14:08:04.987Z,51.65
2022-10-23T14:13:07.104Z,51.67
2022-10-23T14:18:08.372Z,50.88
2022-10-23T14:23:08.697Z,51.20
2022-10-23T14:28:08.095Z,48.59
2022-10-23T14:33:10.411Z,48.77
2022-10-23T14:38:09.843Z,50.01
2022-10-23T14:43:11.114Z,49.19
2022-10-23T14:48:14.447Z,48.39
2022-10-23T14:53:13.671Z,49.38
2022-10-23T14:58:14.952Z,51.40
2022-10-23T15:03:17.225Z,50.52
2022-10-23T15:08:16.644Z,49.41
2022-10-23T15:13:15.813Z,49.80
2022-10-23T15:18:16.953Z,50.01
2022-10-23T15:23:18.108Z,48.61
2022-10-23T15:28:19.298Z,48.19
2022-10-23T15:33:21.541Z,48.91
2022-10-23T15:38:21.762Z,48.81
2022-10-23T15:43:21.019Z,49.23
2022-10-23T15:48:22.375Z,49.11
2022-10-23T15:53:23.630Z,49.13
2022-10-23T15:58:24.819Z,59.70
2022-10-23T16:03:27.120Z,68.62
2022-10-23T16:08:27.447Z,74.82
2022-10-23T16:13:27.835Z,70.86
2022-10-23T16:18:27.067Z,74.75
2022-10-23T16:23:28.316Z,76.10
2022-10-23T16:28:29.508Z,79.63
2022-10-23T16:33:30.863Z,79.73
2022-10-23T16:38:32.271Z,80.38
2022-10-23T16:43:33.728Z,80.78
2022-10-23T16:48:33.043Z,80.47
2022-10-23T16:53:34.548Z,80.51
2022-10-23T16:58:34.954Z,81.76
2022-10-23T17:03:34.351Z,81.76
2022-10-23T17:08:36.528Z,81.76
2022-10-23T17:13:35.746Z,80.65
2022-10-23T17:18:39.909Z,79.74
2022-10-23T17:23:38.267Z,78.84
2022-10-23T17:28:38.708Z,77.73
2022-10-23T17:33:39.182Z,78.06
2022-10-23T17:38:37.358Z,78.67
2022-10-23T17:43:40.696Z,78.57
2022-10-23T17:48:40.075Z,79.11
2022-10-23T17:53:42.506Z,79.62
2022-10-23T17:58:42.923Z,81.37
2022-10-23T18:03:42.460Z,81.17
2022-10-23T18:08:42.694Z,82.62
2022-10-23T18:13:42.261Z,83.58
2022-10-23T18:18:41.860Z,82.76
2022-10-23T18:23:42.362Z,83.17
2022-10-23T18:28:42.858Z,84.73
2022-10-23T18:33:43.347Z,73.98
2022-10-23T18:38:42.987Z,78.94
2022-10-23T18:43:44.083Z,79.17
2022-10-23T18:48:42.078Z,70.36
2022-10-23T18:53:42.576Z,57.12
2022-10-23T18:58:42.021Z,55.54
2022-10-23T19:03:41.529Z,54.49
2022-10-23T19:08:40.977Z,54.39
2022-10-23T19:13:43.464Z,53.47
2022-10-23T19:18:42.956Z,53.06
2022-10-23T19:23:42.394Z,61.81
2022-10-23T19:28:49.690Z,69.76
2022-10-23T19:33:45.335Z,76.20
2022-10-23T19:38:44.757Z,80.01
2022-10-23T19:43:45.350Z,80.11
2022-10-23T19:48:47.545Z,82.17
2022-10-23T19:53:46.937Z,83.92
2022-10-23T19:58:46.352Z,83.72
2022-10-23T20:03:47.803Z,83.42
2022-10-23T20:08:48.322Z,81.50
2022-10-23T20:13:48.303Z,79.24
2022-10-23T20:18:48.036Z,79.14
2022-10-23T20:23:53.063Z,79.00
2022-10-23T20:28:48.601Z,77.59
2022-10-23T20:33:47.886Z,76.28
2022-10-23T20:38:49.036Z,76.14
2022-10-23T20:43:50.255Z,75.54
2022-10-23T20:48:52.817Z,75.40
2022-10-23T20:53:52.277Z,74.39
2022-10-23T20:58:51.464Z,75.20
2022-10-23T21:03:52.751Z,76.54
2022-10-23T21:08:53.897Z,74.79
2022-10-23T21:13:55.264Z,75.40
2022-10-23T21:18:56.391Z,72.97
2022-10-23T21:23:57.605Z,73.61
2022-10-23T21:29:17.938Z,72.47
2022-10-23T21:33:59.708Z,69.32
2022-10-23T21:39:02.824Z,72.03
2022-10-23T21:44:01.920Z,73.82
2022-10-23T21:49:04.025Z,73.61
2022-10-23T21:54:03.112Z,71.00
2022-10-23T21:59:04.270Z,70.26
2022-10-23T22:04:05.409Z,71.13
2022-10-23T22:09:06.502Z,73.78
2022-10-23T22:14:07.593Z,75.05
2022-10-23T22:19:08.782Z,76.23
2022-10-23T22:24:10.896Z,78.52
2022-10-23T22:29:14.087Z,79.83
2022-10-23T22:34:25.115Z,77.88
2022-10-23T22:39:11.184Z,79.43
2022-10-23T22:44:13.483Z,80.78
2022-10-23T22:49:15.628Z,81.18
2022-10-23T22:54:12.791Z,82.09
2022-10-23T22:59:14.194Z,82.50
2022-10-23T23:04:36.768Z,85.92
2022-10-23T23:09:18.245Z,87.78
2022-10-23T23:14:20.310Z,87.12
2022-10-23T23:19:17.433Z,87.32
2022-10-23T23:24:18.620Z,89.64
2022-10-23T23:29:19.858Z,89.17
2022-10-23T23:34:22.960Z,91.14
2022-10-23T23:39:22.166Z,93.10
2022-10-23T23:44:24.299Z,95.43
2022-10-23T23:49:23.394Z,94.82
2022-10-23T23:54:24.811Z,95.98
2022-10-23T23:59:26.057Z,96.69
